sensor_id;sensor_type;location;lat;lon;timestamp;pressure;altitude;pressure_sealevel;temperature;humidity
69593;BME280;56796;50.122;14.468;2023-02-26T00:15:26;971.33;;;-0.99;100
69593;BME280;56796;50.122;14.468;2023-02-26T00:34:51;971.55;;;-1.03;100
69593;BME280;56796;50.122;14.468;2023-02-26T00:54:18;971.7;;;-1.05;100
69593;BME280;56796;50.122;14.468;2023-02-26T01:13:45;971.89;;;-1.14;100
69593;BME280;56796;50.122;14.468;2023-02-26T01:33:05;972.02;;;-1.26;100
69593;BME280;56796;50.122;14.468;2023-02-26T02:12:01;972.33;;;-1.26;100
69593;BME280;56796;50.122;14.468;2023-02-26T02:31:19;972.53;;;-1.13;99.09
69593;BME280;56796;50.122;14.468;2023-02-26T02:50:49;972.8;;;-1.02;97.6
69593;BME280;56796;50.122;14.468;2023-02-26T03:10:06;973.07;;;-0.96;96.36
69593;BME280;56796;50.122;14.468;2023-02-26T03:29:33;973.27;;;-0.96;95.27
69593;BME280;56796;50.122;14.468;2023-02-26T03:48:57;973.58;;;-0.98;95.16
69593;BME280;56796;50.122;14.468;2023-02-26T04:08:22;973.83;;;-0.89;94.7
69593;BME280;56796;50.122;14.468;2023-02-26T04:27:47;973.94;;;-0.9;94.59
69593;BME280;56796;50.122;14.468;2023-02-26T04:47:14;974.14;;;-0.92;94.77
69593;BME280;56796;50.122;14.468;2023-02-26T05:06:40;974.26;;;-0.88;92.16
69593;BME280;56796;50.122;14.468;2023-02-26T05:26:05;974.55;;;-1.08;91.44
69593;BME280;56796;50.122;14.468;2023-02-26T05:45:30;974.86;;;-1.09;91.34
69593;BME280;56796;50.122;14.468;2023-02-26T06:04:55;975.24;;;-1.09;90.94
69593;BME280;56796;50.122;14.468;2023-02-26T06:24:25;975.64;;;-0.83;90.47
69593;BME280;56796;50.122;14.468;2023-02-26T06:43:47;975.92;;;-0.69;89.74
69593;BME280;56796;50.122;14.468;2023-02-26T07:03:05;976.34;;;-0.57;89.51
69593;BME280;56796;50.122;14.468;2023-02-26T07:22:32;976.61;;;-0.39;87.65
69593;BME280;56796;50.122;14.468;2023-02-26T07:42:00;976.96;;;-0.12;86.14
69593;BME280;56796;50.122;14.468;2023-02-26T08:01:26;977.16;;;0.02;87
69593;BME280;56796;50.122;14.468;2023-02-26T08:20:58;977.39;;;1.22;82.53
69593;BME280;56796;50.122;14.468;2023-02-26T08:40:19;977.64;;;0.91;82.72
69593;BME280;56796;50.122;14.468;2023-02-26T08:59:41;977.96;;;1.15;80.33
69593;BME280;56796;50.122;14.468;2023-02-26T09:19:05;978.16;;;1.59;79.72
69593;BME280;56796;50.122;14.468;2023-02-26T09:38:35;978.29;;;3.2;75.43
69593;BME280;56796;50.122;14.468;2023-02-26T09:58:10;978.51;;;2.7;72.51
69593;BME280;56796;50.122;14.468;2023-02-26T10:17:29;978.73;;;2.39;74.5
69593;BME280;56796;50.122;14.468;2023-02-26T10:36:52;978.98;;;1.26;80.02
69593;BME280;56796;50.122;14.468;2023-02-26T10:56:14;979.17;;;1.22;81.93
69593;BME280;56796;50.122;14.468;2023-02-26T11:15:43;979.25;;;2.08;79.89
69593;BME280;56796;50.122;14.468;2023-02-26T11:35:00;979.48;;;1.16;82.55
69593;BME280;56796;50.122;14.468;2023-02-26T11:54:26;979.67;;;0.99;83.24
69593;BME280;56796;50.122;14.468;2023-02-26T12:13:56;979.69;;;1.09;82.34
69593;BME280;56796;50.122;14.468;2023-02-26T12:33:13;979.77;;;1.05;82.84
69593;BME280;56796;50.122;14.468;2023-02-26T13:12:09;980.08;;;1.16;80.3
69593;BME280;56796;50.122;14.468;2023-02-26T13:31:25;980.1;;;1.2;79.78
69593;BME280;56796;50.122;14.468;2023-02-26T13:50:56;980.12;;;2.79;75.38
69593;BME280;56796;50.122;14.468;2023-02-26T14:10:22;980.21;;;1.76;78.02
69593;BME280;56796;50.122;14.468;2023-02-26T14:29:56;980.31;;;1.36;76.64
69593;BME280;56796;50.122;14.468;2023-02-26T14:49:12;980.38;;;1.79;75.64
69593;BME280;56796;50.122;14.468;2023-02-26T15:08:46;980.62;;;2.35;72.32
69593;BME280;56796;50.122;14.468;2023-02-26T15:27:57;980.94;;;1.24;74.79
69593;BME280;56796;50.122;14.468;2023-02-26T15:47:21;981.17;;;1.76;74.93
69593;BME280;56796;50.122;14.468;2023-02-26T16:06:47;981.38;;;1.16;76.53
69593;BME280;56796;50.122;14.468;2023-02-26T16:26:12;981.77;;;0.93;76.84
69593;BME280;56796;50.122;14.468;2023-02-26T17:04:57;982.53;;;0.6;78.18
69593;BME280;56796;50.122;14.468;2023-02-26T17:24:22;982.93;;;0.49;80.02
69593;BME280;56796;50.122;14.468;2023-02-26T17:43:46;983.23;;;-0.03;82.31
69593;BME280;56796;50.122;14.468;2023-02-26T18:03:11;983.4;;;-0.03;84.39
69593;BME280;56796;50.122;14.468;2023-02-26T18:22:36;983.54;;;-0.05;84.95
69593;BME280;56796;50.122;14.468;2023-02-26T18:42:02;983.66;;;-0.25;86.85
69593;BME280;56796;50.122;14.468;2023-02-26T19:01:28;983.82;;;-0.3;87.98
69593;BME280;56796;50.122;14.468;2023-02-26T19:20:54;983.97;;;-0.54;89.43
69593;BME280;56796;50.122;14.468;2023-02-26T19:40:18;984.13;;;-0.79;91.24
69593;BME280;56796;50.122;14.468;2023-02-26T19:59:45;984.4;;;-0.81;92.28
69593;BME280;56796;50.122;14.468;2023-02-26T20:19:03;984.55;;;-0.72;92.26
69593;BME280;56796;50.122;14.468;2023-02-26T20:38:30;984.72;;;-0.7;91.8
69593;BME280;56796;50.122;14.468;2023-02-26T20:57:56;984.99;;;-0.85;92.34
69593;BME280;56796;50.122;14.468;2023-02-26T21:17:21;985.17;;;-0.9;92.85
69593;BME280;56796;50.122;14.468;2023-02-26T21:36:46;985.35;;;-0.98;93.13
69593;BME280;56796;50.122;14.468;2023-02-26T21:56:11;985.31;;;-1.05;94.59
69593;BME280;56796;50.122;14.468;2023-02-26T22:15:37;985.4;;;-1.15;96.05
69593;BME280;56796;50.122;14.468;2023-02-26T22:35:03;985.63;;;-1.11;95.23
69593;BME280;56796;50.122;14.468;2023-02-26T22:54:27;985.76;;;-1.09;94.94
69593;BME280;56796;50.122;14.468;2023-02-26T23:13:53;985.78;;;-1.09;94.81
69593;BME280;56796;50.122;14.468;2023-02-26T23:33:18;985.77;;;-1.23;94.64
69593;BME280;56796;50.122;14.468;2023-02-26T23:52:44;985.74;;;-1.4;94.38
